Terminal Aerodrome Forecast
Issued by NWS Twin Cities, MN

Home | Current Version | Previous Version | Graphics & Text | Print | Product List | Glossary On
Versions: 1 2 3 4 5 6 7 8 9 10 11 12 13 14 15 16 17 18 19 20 21 22 23 24 25 26 27 28 29 30 31 32 33
000
FTUS43 KMPX 240245 AAC
TAFMSP
TAF AMD
KMSP 240245Z 2403/2506 14008KT P6SM OVC020
     FM240600 13009KT P6SM OVC015
     FM241700 12012G18KT P6SM SCT020 BKN150
     FM250000 12013G18KT 6SM -RASN BKN025 OVC090
     FM250100 12013KT 1SM -SN BR OVC015=

USA.gov is the U.S. government's official web portal to all federal, state and local government web resources and services.